sensor_id;sensor_type;location;lat;lon;timestamp;P1;durP1;ratioP1;P2;durP2;ratioP2
6610;SDS011;44111;46.692;13.664;2022-10-16T00:01:04;25.33;;;19.80;;
6610;SDS011;44111;46.692;13.664;2022-10-16T00:03:32;24.70;;;19.53;;
6610;SDS011;44111;46.692;13.664;2022-10-16T00:06:00;26.97;;;21.43;;
6610;SDS011;44111;46.692;13.664;2022-10-16T00:08:27;28.20;;;22.63;;
6610;SDS011;44111;46.692;13.664;2022-10-16T00:10:58;25.47;;;19.67;;
6610;SDS011;44111;46.692;13.664;2022-10-16T00:13:25;27.70;;;20.57;;
6610;SDS011;44111;46.692;13.664;2022-10-16T00:15:56;27.13;;;21.27;;
6610;SDS011;44111;46.692;13.664;2022-10-16T00:18:23;24.83;;;20.17;;
6610;SDS011;44111;46.692;13.664;2022-10-16T00:20:51;24.07;;;19.63;;
6610;SDS011;44111;46.692;13.664;2022-10-16T00:23:17;22.60;;;19.77;;
6610;SDS011;44111;46.692;13.664;2022-10-16T00:25:44;26.20;;;20.80;;
6610;SDS011;44111;46.692;13.664;2022-10-16T00:28:11;25.40;;;18.80;;
6610;SDS011;44111;46.692;13.664;2022-10-16T00:30:38;22.70;;;19.27;;
6610;SDS011;44111;46.692;13.664;2022-10-16T00:33:07;21.53;;;18.07;;
6610;SDS011;44111;46.692;13.664;2022-10-16T00:35:33;26.43;;;19.10;;
6610;SDS011;44111;46.692;13.664;2022-10-16T00:38:00;23.73;;;18.33;;
6610;SDS011;44111;46.692;13.664;2022-10-16T00:40:27;21.70;;;17.53;;
6610;SDS011;44111;46.692;13.664;2022-10-16T00:42:54;24.27;;;18.23;;
6610;SDS011;44111;46.692;13.664;2022-10-16T00:45:21;24.27;;;19.67;;
6610;SDS011;44111;46.692;13.664;2022-10-16T00:47:48;22.07;;;18.60;;
6610;SDS011;44111;46.692;13.664;2022-10-16T00:50:18;22.87;;;19.07;;
6610;SDS011;44111;46.692;13.664;2022-10-16T00:52:48;24.27;;;17.83;;
6610;SDS011;44111;46.692;13.664;2022-10-16T00:55:17;29.43;;;22.13;;
6610;SDS011;44111;46.692;13.664;2022-10-16T00:57:44;28.60;;;21.23;;
6610;SDS011;44111;46.692;13.664;2022-10-16T01:00:12;27.97;;;21.23;;
6610;SDS011;44111;46.692;13.664;2022-10-16T01:02:41;27.43;;;21.23;;
6610;SDS011;44111;46.692;13.664;2022-10-16T01:05:08;26.53;;;21.40;;
6610;SDS011;44111;46.692;13.664;2022-10-16T01:07:39;24.33;;;19.50;;
6610;SDS011;44111;46.692;13.664;2022-10-16T01:10:13;25.40;;;19.37;;
6610;SDS011;44111;46.692;13.664;2022-10-16T01:12:45;26.43;;;21.73;;
6610;SDS011;44111;46.692;13.664;2022-10-16T01:15:16;27.90;;;21.33;;
6610;SDS011;44111;46.692;13.664;2022-10-16T01:17:47;22.87;;;18.60;;
6610;SDS011;44111;46.692;13.664;2022-10-16T01:20:21;25.20;;;19.40;;
6610;SDS011;44111;46.692;13.664;2022-10-16T01:23:10;25.70;;;18.17;;
6610;SDS011;44111;46.692;13.664;2022-10-16T01:28:39;23.83;;;19.10;;
6610;SDS011;44111;46.692;13.664;2022-10-16T01:31:08;21.87;;;17.47;;
6610;SDS011;44111;46.692;13.664;2022-10-16T01:33:38;26.13;;;21.27;;
6610;SDS011;44111;46.692;13.664;2022-10-16T01:36:09;22.93;;;18.97;;
6610;SDS011;44111;46.692;13.664;2022-10-16T01:38:39;25.10;;;20.00;;
6610;SDS011;44111;46.692;13.664;2022-10-16T01:41:08;23.13;;;18.07;;
6610;SDS011;44111;46.692;13.664;2022-10-16T01:43:37;23.77;;;17.93;;
6610;SDS011;44111;46.692;13.664;2022-10-16T01:46:08;23.20;;;18.27;;
6610;SDS011;44111;46.692;13.664;2022-10-16T01:48:37;24.33;;;19.50;;
6610;SDS011;44111;46.692;13.664;2022-10-16T01:51:05;27.47;;;20.20;;
6610;SDS011;44111;46.692;13.664;2022-10-16T01:53:33;30.00;;;20.37;;
6610;SDS011;44111;46.692;13.664;2022-10-16T01:56:01;24.47;;;20.40;;
6610;SDS011;44111;46.692;13.664;2022-10-16T01:58:30;26.47;;;20.50;;
6610;SDS011;44111;46.692;13.664;2022-10-16T02:01:01;30.50;;;23.37;;
6610;SDS011;44111;46.692;13.664;2022-10-16T02:03:29;28.47;;;20.40;;
6610;SDS011;44111;46.692;13.664;2022-10-16T02:05:56;26.47;;;20.90;;
6610;SDS011;44111;46.692;13.664;2022-10-16T02:08:25;29.10;;;21.80;;
6610;SDS011;44111;46.692;13.664;2022-10-16T02:10:54;30.63;;;21.73;;
6610;SDS011;44111;46.692;13.664;2022-10-16T02:13:22;29.10;;;21.83;;
6610;SDS011;44111;46.692;13.664;2022-10-16T02:15:52;28.40;;;20.83;;
6610;SDS011;44111;46.692;13.664;2022-10-16T02:18:20;26.70;;;20.60;;
6610;SDS011;44111;46.692;13.664;2022-10-16T02:20:48;26.77;;;20.53;;
6610;SDS011;44111;46.692;13.664;2022-10-16T02:23:19;26.73;;;21.23;;
6610;SDS011;44111;46.692;13.664;2022-10-16T02:25:48;26.90;;;21.83;;
6610;SDS011;44111;46.692;13.664;2022-10-16T02:28:18;25.70;;;19.93;;
6610;SDS011;44111;46.692;13.664;2022-10-16T02:30:48;23.40;;;18.27;;
6610;SDS011;44111;46.692;13.664;2022-10-16T02:33:17;23.30;;;18.40;;
6610;SDS011;44111;46.692;13.664;2022-10-16T02:35:47;22.10;;;17.60;;
6610;SDS011;44111;46.692;13.664;2022-10-16T02:38:16;25.83;;;19.40;;
6610;SDS011;44111;46.692;13.664;2022-10-16T02:40:43;25.27;;;19.83;;
6610;SDS011;44111;46.692;13.664;2022-10-16T02:43:10;23.37;;;18.57;;
6610;SDS011;44111;46.692;13.664;2022-10-16T02:45:37;23.97;;;18.17;;
6610;SDS011;44111;46.692;13.664;2022-10-16T02:48:04;25.43;;;17.90;;
6610;SDS011;44111;46.692;13.664;2022-10-16T02:50:32;22.63;;;18.17;;
6610;SDS011;44111;46.692;13.664;2022-10-16T02:52:59;23.07;;;18.50;;
6610;SDS011;44111;46.692;13.664;2022-10-16T02:55:26;21.23;;;17.27;;
6610;SDS011;44111;46.692;13.664;2022-10-16T02:57:55;20.37;;;17.03;;
6610;SDS011;44111;46.692;13.664;2022-10-16T03:00:22;21.87;;;18.03;;
6610;SDS011;44111;46.692;13.664;2022-10-16T03:02:49;26.70;;;18.43;;
6610;SDS011;44111;46.692;13.664;2022-10-16T03:05:16;30.73;;;20.30;;
6610;SDS011;44111;46.692;13.664;2022-10-16T03:07:44;42.13;;;23.97;;
6610;SDS011;44111;46.692;13.664;2022-10-16T03:10:11;61.03;;;26.00;;
6610;SDS011;44111;46.692;13.664;2022-10-16T03:12:38;60.40;;;28.20;;
6610;SDS011;44111;46.692;13.664;2022-10-16T03:15:05;45.63;;;28.13;;
6610;SDS011;44111;46.692;13.664;2022-10-16T03:17:33;34.10;;;24.47;;
6610;SDS011;44111;46.692;13.664;2022-10-16T03:20:01;29.97;;;22.00;;
6610;SDS011;44111;46.692;13.664;2022-10-16T03:22:28;26.80;;;20.20;;
6610;SDS011;44111;46.692;13.664;2022-10-16T03:24:57;27.07;;;21.23;;
6610;SDS011;44111;46.692;13.664;2022-10-16T03:27:23;24.90;;;18.63;;
6610;SDS011;44111;46.692;13.664;2022-10-16T03:29:50;19.53;;;16.90;;
6610;SDS011;44111;46.692;13.664;2022-10-16T03:32:17;22.73;;;16.27;;
6610;SDS011;44111;46.692;13.664;2022-10-16T03:34:45;21.30;;;17.87;;
6610;SDS011;44111;46.692;13.664;2022-10-16T03:37:12;22.90;;;17.57;;
6610;SDS011;44111;46.692;13.664;2022-10-16T03:39:39;20.10;;;16.27;;
6610;SDS011;44111;46.692;13.664;2022-10-16T03:42:07;22.23;;;16.63;;
6610;SDS011;44111;46.692;13.664;2022-10-16T03:44:34;20.47;;;16.37;;
6610;SDS011;44111;46.692;13.664;2022-10-16T03:47:01;22.37;;;18.07;;
6610;SDS011;44111;46.692;13.664;2022-10-16T03:49:27;28.13;;;21.10;;
6610;SDS011;44111;46.692;13.664;2022-10-16T03:51:54;27.43;;;20.00;;
6610;SDS011;44111;46.692;13.664;2022-10-16T03:54:21;26.63;;;19.40;;
6610;SDS011;44111;46.692;13.664;2022-10-16T03:56:48;29.37;;;20.43;;
6610;SDS011;44111;46.692;13.664;2022-10-16T03:59:19;26.20;;;20.07;;
6610;SDS011;44111;46.692;13.664;2022-10-16T04:01:46;24.93;;;19.43;;
6610;SDS011;44111;46.692;13.664;2022-10-16T04:04:13;32.53;;;21.57;;
6610;SDS011;44111;46.692;13.664;2022-10-16T04:06:40;34.13;;;21.80;;
6610;SDS011;44111;46.692;13.664;2022-10-16T04:09:07;47.30;;;22.53;;
6610;SDS011;44111;46.692;13.664;2022-10-16T04:11:34;28.90;;;21.13;;
6610;SDS011;44111;46.692;13.664;2022-10-16T04:14:00;23.87;;;19.07;;
6610;SDS011;44111;46.692;13.664;2022-10-16T04:16:29;26.37;;;20.07;;
6610;SDS011;44111;46.692;13.664;2022-10-16T04:18:55;27.90;;;21.37;;
6610;SDS011;44111;46.692;13.664;2022-10-16T04:21:22;26.47;;;20.50;;
6610;SDS011;44111;46.692;13.664;2022-10-16T04:23:49;26.77;;;19.30;;
6610;SDS011;44111;46.692;13.664;2022-10-16T04:26:16;28.23;;;20.50;;
6610;SDS011;44111;46.692;13.664;2022-10-16T04:28:43;20.13;;;17.33;;
6610;SDS011;44111;46.692;13.664;2022-10-16T04:31:10;23.40;;;18.40;;
6610;SDS011;44111;46.692;13.664;2022-10-16T04:33:38;23.40;;;18.57;;
6610;SDS011;44111;46.692;13.664;2022-10-16T04:36:05;21.70;;;18.50;;
6610;SDS011;44111;46.692;13.664;2022-10-16T04:38:32;21.50;;;18.00;;
6610;SDS011;44111;46.692;13.664;2022-10-16T04:40:58;35.67;;;21.40;;
6610;SDS011;44111;46.692;13.664;2022-10-16T04:43:25;107.63;;;26.90;;
6610;SDS011;44111;46.692;13.664;2022-10-16T04:45:52;65.77;;;26.97;;
6610;SDS011;44111;46.692;13.664;2022-10-16T04:48:19;32.40;;;22.63;;
6610;SDS011;44111;46.692;13.664;2022-10-16T04:50:48;28.03;;;21.73;;
6610;SDS011;44111;46.692;13.664;2022-10-16T04:53:15;22.87;;;18.87;;
6610;SDS011;44111;46.692;13.664;2022-10-16T04:55:41;25.33;;;19.20;;
6610;SDS011;44111;46.692;13.664;2022-10-16T04:58:08;23.37;;;19.00;;
6610;SDS011;44111;46.692;13.664;2022-10-16T05:00:35;25.57;;;19.07;;
6610;SDS011;44111;46.692;13.664;2022-10-16T05:03:03;28.47;;;19.80;;
6610;SDS011;44111;46.692;13.664;2022-10-16T05:05:32;26.30;;;20.70;;
6610;SDS011;44111;46.692;13.664;2022-10-16T05:08:00;31.47;;;22.00;;
6610;SDS011;44111;46.692;13.664;2022-10-16T05:10:28;24.80;;;19.70;;
6610;SDS011;44111;46.692;13.664;2022-10-16T05:12:55;23.07;;;19.20;;
6610;SDS011;44111;46.692;13.664;2022-10-16T05:15:24;25.17;;;20.03;;
6610;SDS011;44111;46.692;13.664;2022-10-16T05:17:52;23.13;;;17.80;;
6610;SDS011;44111;46.692;13.664;2022-10-16T05:20:19;24.57;;;18.50;;
6610;SDS011;44111;46.692;13.664;2022-10-16T05:22:46;26.23;;;19.07;;
6610;SDS011;44111;46.692;13.664;2022-10-16T05:25:15;23.27;;;19.50;;
6610;SDS011;44111;46.692;13.664;2022-10-16T05:27:42;26.07;;;20.17;;
6610;SDS011;44111;46.692;13.664;2022-10-16T05:30:09;24.30;;;19.27;;
6610;SDS011;44111;46.692;13.664;2022-10-16T05:32:36;20.60;;;17.53;;
6610;SDS011;44111;46.692;13.664;2022-10-16T05:35:03;25.57;;;18.17;;
6610;SDS011;44111;46.692;13.664;2022-10-16T05:37:31;25.67;;;19.63;;
6610;SDS011;44111;46.692;13.664;2022-10-16T05:39:58;25.17;;;19.87;;
6610;SDS011;44111;46.692;13.664;2022-10-16T05:42:26;23.63;;;17.87;;
6610;SDS011;44111;46.692;13.664;2022-10-16T05:44:53;25.20;;;17.03;;
6610;SDS011;44111;46.692;13.664;2022-10-16T05:47:20;23.83;;;18.07;;
6610;SDS011;44111;46.692;13.664;2022-10-16T05:49:47;25.57;;;19.63;;
6610;SDS011;44111;46.692;13.664;2022-10-16T05:52:14;23.73;;;17.67;;
6610;SDS011;44111;46.692;13.664;2022-10-16T05:54:40;20.80;;;16.97;;
6610;SDS011;44111;46.692;13.664;2022-10-16T05:57:07;24.50;;;18.23;;
6610;SDS011;44111;46.692;13.664;2022-10-16T05:59:35;22.00;;;17.73;;
6610;SDS011;44111;46.692;13.664;2022-10-16T06:02:03;26.63;;;20.13;;
6610;SDS011;44111;46.692;13.664;2022-10-16T06:04:29;23.13;;;19.20;;
6610;SDS011;44111;46.692;13.664;2022-10-16T06:06:57;25.83;;;20.80;;
6610;SDS011;44111;46.692;13.664;2022-10-16T06:09:26;32.13;;;24.13;;
6610;SDS011;44111;46.692;13.664;2022-10-16T06:11:53;32.87;;;23.80;;
6610;SDS011;44111;46.692;13.664;2022-10-16T06:14:21;33.13;;;24.20;;
6610;SDS011;44111;46.692;13.664;2022-10-16T06:16:49;32.03;;;23.23;;
6610;SDS011;44111;46.692;13.664;2022-10-16T06:19:16;30.70;;;22.53;;
6610;SDS011;44111;46.692;13.664;2022-10-16T06:21:43;32.07;;;22.97;;
6610;SDS011;44111;46.692;13.664;2022-10-16T06:24:10;28.27;;;20.83;;
6610;SDS011;44111;46.692;13.664;2022-10-16T06:26:37;29.43;;;21.27;;
6610;SDS011;44111;46.692;13.664;2022-10-16T06:29:04;27.67;;;20.60;;
6610;SDS011;44111;46.692;13.664;2022-10-16T06:31:31;29.47;;;22.20;;
6610;SDS011;44111;46.692;13.664;2022-10-16T06:34:00;33.03;;;23.93;;
6610;SDS011;44111;46.692;13.664;2022-10-16T06:36:28;29.43;;;22.97;;
6610;SDS011;44111;46.692;13.664;2022-10-16T06:38:55;31.93;;;24.17;;
6610;SDS011;44111;46.692;13.664;2022-10-16T06:41:22;31.73;;;23.67;;
6610;SDS011;44111;46.692;13.664;2022-10-16T06:43:49;32.50;;;22.87;;
6610;SDS011;44111;46.692;13.664;2022-10-16T06:46:17;29.63;;;22.60;;
6610;SDS011;44111;46.692;13.664;2022-10-16T06:48:45;28.53;;;23.03;;
6610;SDS011;44111;46.692;13.664;2022-10-16T06:51:15;39.67;;;22.50;;
6610;SDS011;44111;46.692;13.664;2022-10-16T06:53:44;31.47;;;23.40;;
6610;SDS011;44111;46.692;13.664;2022-10-16T06:56:12;27.37;;;23.43;;
6610;SDS011;44111;46.692;13.664;2022-10-16T06:58:40;26.67;;;22.60;;
6610;SDS011;44111;46.692;13.664;2022-10-16T07:01:07;27.10;;;21.33;;
6610;SDS011;44111;46.692;13.664;2022-10-16T07:03:35;25.17;;;20.60;;
6610;SDS011;44111;46.692;13.664;2022-10-16T07:06:02;24.93;;;20.00;;
6610;SDS011;44111;46.692;13.664;2022-10-16T07:08:32;25.33;;;20.40;;
6610;SDS011;44111;46.692;13.664;2022-10-16T07:10:59;23.90;;;20.17;;
6610;SDS011;44111;46.692;13.664;2022-10-16T07:13:26;23.17;;;20.17;;
6610;SDS011;44111;46.692;13.664;2022-10-16T07:15:53;25.13;;;20.57;;
6610;SDS011;44111;46.692;13.664;2022-10-16T07:18:20;26.30;;;21.33;;
6610;SDS011;44111;46.692;13.664;2022-10-16T07:20:51;26.20;;;21.93;;
6610;SDS011;44111;46.692;13.664;2022-10-16T07:23:18;21.30;;;19.00;;
6610;SDS011;44111;46.692;13.664;2022-10-16T07:25:46;21.97;;;18.53;;
6610;SDS011;44111;46.692;13.664;2022-10-16T07:28:19;20.40;;;18.20;;
6610;SDS011;44111;46.692;13.664;2022-10-16T07:30:47;21.63;;;18.33;;
6610;SDS011;44111;46.692;13.664;2022-10-16T07:33:13;20.67;;;17.73;;
6610;SDS011;44111;46.692;13.664;2022-10-16T07:35:47;19.30;;;17.20;;
6610;SDS011;44111;46.692;13.664;2022-10-16T07:38:14;19.07;;;15.77;;
6610;SDS011;44111;46.692;13.664;2022-10-16T07:40:41;20.27;;;16.63;;
6610;SDS011;44111;46.692;13.664;2022-10-16T07:43:09;21.27;;;17.27;;
6610;SDS011;44111;46.692;13.664;2022-10-16T07:45:36;21.47;;;17.50;;
6610;SDS011;44111;46.692;13.664;2022-10-16T07:48:03;19.10;;;16.77;;
6610;SDS011;44111;46.692;13.664;2022-10-16T07:50:30;19.63;;;16.93;;
6610;SDS011;44111;46.692;13.664;2022-10-16T07:52:57;18.70;;;16.60;;
6610;SDS011;44111;46.692;13.664;2022-10-16T07:55:23;19.43;;;16.80;;
6610;SDS011;44111;46.692;13.664;2022-10-16T07:57:50;20.30;;;17.53;;
6610;SDS011;44111;46.692;13.664;2022-10-16T08:00:18;21.17;;;16.33;;
6610;SDS011;44111;46.692;13.664;2022-10-16T08:02:45;21.93;;;17.20;;
6610;SDS011;44111;46.692;13.664;2022-10-16T08:05:12;19.70;;;16.30;;
6610;SDS011;44111;46.692;13.664;2022-10-16T08:07:39;18.60;;;15.23;;
6610;SDS011;44111;46.692;13.664;2022-10-16T08:10:06;19.87;;;15.77;;
6610;SDS011;44111;46.692;13.664;2022-10-16T08:12:46;19.23;;;17.13;;
6610;SDS011;44111;46.692;13.664;2022-10-16T08:15:12;19.93;;;16.17;;
6610;SDS011;44111;46.692;13.664;2022-10-16T08:17:41;21.73;;;15.97;;
6610;SDS011;44111;46.692;13.664;2022-10-16T08:20:08;19.33;;;16.40;;
6610;SDS011;44111;46.692;13.664;2022-10-16T08:22:36;19.23;;;17.20;;
6610;SDS011;44111;46.692;13.664;2022-10-16T08:25:03;18.23;;;16.33;;
6610;SDS011;44111;46.692;13.664;2022-10-16T08:27:30;16.77;;;15.10;;
6610;SDS011;44111;46.692;13.664;2022-10-16T08:29:57;17.97;;;16.07;;
6610;SDS011;44111;46.692;13.664;2022-10-16T08:32:24;16.57;;;14.53;;
6610;SDS011;44111;46.692;13.664;2022-10-16T08:34:52;17.73;;;15.83;;
6610;SDS011;44111;46.692;13.664;2022-10-16T08:37:19;18.40;;;15.10;;
6610;SDS011;44111;46.692;13.664;2022-10-16T08:39:46;19.23;;;15.97;;
6610;SDS011;44111;46.692;13.664;2022-10-16T08:42:16;23.20;;;16.23;;
6610;SDS011;44111;46.692;13.664;2022-10-16T08:47:48;19.63;;;15.57;;
6610;SDS011;44111;46.692;13.664;2022-10-16T08:50:20;19.87;;;17.67;;
6610;SDS011;44111;46.692;13.664;2022-10-16T08:52:52;17.50;;;15.73;;
6610;SDS011;44111;46.692;13.664;2022-10-16T08:55:24;17.67;;;15.83;;
6610;SDS011;44111;46.692;13.664;2022-10-16T08:57:58;18.33;;;15.83;;
6610;SDS011;44111;46.692;13.664;2022-10-16T09:00:26;19.00;;;16.13;;
6610;SDS011;44111;46.692;13.664;2022-10-16T09:02:55;17.13;;;14.70;;
6610;SDS011;44111;46.692;13.664;2022-10-16T09:05:41;19.30;;;16.43;;
6610;SDS011;44111;46.692;13.664;2022-10-16T09:08:15;17.63;;;15.07;;
6610;SDS011;44111;46.692;13.664;2022-10-16T09:10:49;18.43;;;16.43;;
6610;SDS011;44111;46.692;13.664;2022-10-16T09:13:23;17.07;;;15.27;;
6610;SDS011;44111;46.692;13.664;2022-10-16T09:18:23;16.83;;;15.03;;
6610;SDS011;44111;46.692;13.664;2022-10-16T09:20:56;17.17;;;15.43;;
6610;SDS011;44111;46.692;13.664;2022-10-16T09:23:27;16.93;;;15.17;;
6610;SDS011;44111;46.692;13.664;2022-10-16T09:25:55;17.47;;;15.57;;
6610;SDS011;44111;46.692;13.664;2022-10-16T09:28:24;16.87;;;15.17;;
6610;SDS011;44111;46.692;13.664;2022-10-16T09:30:51;17.43;;;14.77;;
6610;SDS011;44111;46.692;13.664;2022-10-16T09:33:19;16.03;;;14.37;;
6610;SDS011;44111;46.692;13.664;2022-10-16T09:35:48;15.27;;;13.73;;
6610;SDS011;44111;46.692;13.664;2022-10-16T09:38:25;18.40;;;15.07;;
6610;SDS011;44111;46.692;13.664;2022-10-16T09:43:22;16.10;;;14.50;;
6610;SDS011;44111;46.692;13.664;2022-10-16T09:45:56;17.00;;;15.20;;
6610;SDS011;44111;46.692;13.664;2022-10-16T09:48:25;16.37;;;14.67;;
6610;SDS011;44111;46.692;13.664;2022-10-16T09:50:57;15.43;;;13.57;;
6610;SDS011;44111;46.692;13.664;2022-10-16T09:53:27;16.67;;;14.87;;
6610;SDS011;44111;46.692;13.664;2022-10-16T09:56:05;18.43;;;14.43;;
6610;SDS011;44111;46.692;13.664;2022-10-16T09:58:32;15.97;;;14.00;;
6610;SDS011;44111;46.692;13.664;2022-10-16T10:00:59;15.37;;;13.87;;
6610;SDS011;44111;46.692;13.664;2022-10-16T10:03:36;15.37;;;13.77;;
6610;SDS011;44111;46.692;13.664;2022-10-16T10:06:06;15.27;;;13.73;;
6610;SDS011;44111;46.692;13.664;2022-10-16T10:08:51;14.63;;;13.10;;
6610;SDS011;44111;46.692;13.664;2022-10-16T10:14:05;14.83;;;13.33;;
6610;SDS011;44111;46.692;13.664;2022-10-16T10:16:32;15.07;;;13.47;;
6610;SDS011;44111;46.692;13.664;2022-10-16T10:18:59;14.00;;;12.60;;
6610;SDS011;44111;46.692;13.664;2022-10-16T10:21:26;14.23;;;12.70;;
6610;SDS011;44111;46.692;13.664;2022-10-16T10:23:56;15.33;;;13.73;;
6610;SDS011;44111;46.692;13.664;2022-10-16T10:26:23;14.97;;;13.40;;
6610;SDS011;44111;46.692;13.664;2022-10-16T10:28:54;14.27;;;12.57;;
6610;SDS011;44111;46.692;13.664;2022-10-16T10:31:27;13.53;;;12.23;;
6610;SDS011;44111;46.692;13.664;2022-10-16T10:33:58;13.17;;;11.97;;
6610;SDS011;44111;46.692;13.664;2022-10-16T13:53:06;10.50;;;9.48;;
6610;SDS011;44111;46.692;13.664;2022-10-16T13:55:33;11.20;;;8.68;;
6610;SDS011;44111;46.692;13.664;2022-10-16T13:58:07;8.10;;;7.40;;
6610;SDS011;44111;46.692;13.664;2022-10-16T14:00:34;9.07;;;7.55;;
6610;SDS011;44111;46.692;13.664;2022-10-16T14:03:01;8.48;;;7.68;;
6610;SDS011;44111;46.692;13.664;2022-10-16T14:05:30;7.97;;;7.18;;
6610;SDS011;44111;46.692;13.664;2022-10-16T14:07:57;7.95;;;7.25;;
6610;SDS011;44111;46.692;13.664;2022-10-16T14:10:26;7.47;;;6.82;;
6610;SDS011;44111;46.692;13.664;2022-10-16T14:12:56;7.50;;;6.80;;
6610;SDS011;44111;46.692;13.664;2022-10-16T14:15:24;8.05;;;7.25;;
6610;SDS011;44111;46.692;13.664;2022-10-16T14:17:51;7.00;;;6.40;;
6610;SDS011;44111;46.692;13.664;2022-10-16T14:20:20;7.68;;;6.97;;
6610;SDS011;44111;46.692;13.664;2022-10-16T14:22:48;7.72;;;6.90;;
6610;SDS011;44111;46.692;13.664;2022-10-16T14:25:27;8.23;;;7.10;;
6610;SDS011;44111;46.692;13.664;2022-10-16T14:27:57;8.50;;;7.55;;
6610;SDS011;44111;46.692;13.664;2022-10-16T14:30:28;11.00;;;10.02;;
6610;SDS011;44111;46.692;13.664;2022-10-16T14:32:56;10.82;;;9.75;;
6610;SDS011;44111;46.692;13.664;2022-10-16T14:35:25;9.65;;;8.75;;
6610;SDS011;44111;46.692;13.664;2022-10-16T14:37:54;11.13;;;9.55;;
6610;SDS011;44111;46.692;13.664;2022-10-16T14:40:23;9.75;;;8.85;;
6610;SDS011;44111;46.692;13.664;2022-10-16T14:42:52;9.82;;;8.88;;
6610;SDS011;44111;46.692;13.664;2022-10-16T14:45:20;11.13;;;9.27;;
6610;SDS011;44111;46.692;13.664;2022-10-16T14:47:48;11.27;;;9.80;;
6610;SDS011;44111;46.692;13.664;2022-10-16T14:50:16;9.77;;;8.77;;
6610;SDS011;44111;46.692;13.664;2022-10-16T14:52:43;10.48;;;9.25;;
6610;SDS011;44111;46.692;13.664;2022-10-16T14:55:10;10.20;;;9.13;;
6610;SDS011;44111;46.692;13.664;2022-10-16T14:57:37;10.55;;;9.63;;
6610;SDS011;44111;46.692;13.664;2022-10-16T15:00:08;10.18;;;9.18;;
6610;SDS011;44111;46.692;13.664;2022-10-16T15:02:40;12.02;;;9.43;;
6610;SDS011;44111;46.692;13.664;2022-10-16T15:05:10;11.55;;;10.23;;
6610;SDS011;44111;46.692;13.664;2022-10-16T15:07:39;11.60;;;9.60;;
6610;SDS011;44111;46.692;13.664;2022-10-16T15:10:06;17.37;;;9.80;;
6610;SDS011;44111;46.692;13.664;2022-10-16T15:12:33;29.50;;;10.73;;
6610;SDS011;44111;46.692;13.664;2022-10-16T15:15:00;12.83;;;9.37;;
6610;SDS011;44111;46.692;13.664;2022-10-16T16:07:05;12.47;;;10.00;;
6610;SDS011;44111;46.692;13.664;2022-10-16T16:09:46;20.63;;;16.93;;
6610;SDS011;44111;46.692;13.664;2022-10-16T16:12:27;14.10;;;12.53;;
6610;SDS011;44111;46.692;13.664;2022-10-16T16:15:05;13.20;;;11.23;;
6610;SDS011;44111;46.692;13.664;2022-10-16T16:17:33;14.87;;;10.93;;
6610;SDS011;44111;46.692;13.664;2022-10-16T16:20:00;16.60;;;12.30;;
6610;SDS011;44111;46.692;13.664;2022-10-16T16:22:29;12.57;;;11.37;;
6610;SDS011;44111;46.692;13.664;2022-10-16T16:24:56;12.67;;;11.13;;
6610;SDS011;44111;46.692;13.664;2022-10-16T16:27:23;14.43;;;10.07;;
6610;SDS011;44111;46.692;13.664;2022-10-16T16:29:50;11.33;;;10.23;;
6610;SDS011;44111;46.692;13.664;2022-10-16T16:32:17;12.47;;;11.17;;
6610;SDS011;44111;46.692;13.664;2022-10-16T16:34:44;11.77;;;10.30;;
6610;SDS011;44111;46.692;13.664;2022-10-16T16:39:39;12.80;;;10.83;;
6610;SDS011;44111;46.692;13.664;2022-10-16T16:42:05;11.20;;;10.10;;
6610;SDS011;44111;46.692;13.664;2022-10-16T16:44:32;10.30;;;9.30;;
6610;SDS011;44111;46.692;13.664;2022-10-16T16:47:01;14.60;;;11.50;;
6610;SDS011;44111;46.692;13.664;2022-10-16T16:49:28;12.47;;;11.13;;
6610;SDS011;44111;46.692;13.664;2022-10-16T16:51:55;13.90;;;11.07;;
6610;SDS011;44111;46.692;13.664;2022-10-16T16:54:22;12.20;;;10.87;;
6610;SDS011;44111;46.692;13.664;2022-10-16T16:56:50;14.33;;;10.20;;
6610;SDS011;44111;46.692;13.664;2022-10-16T16:59:18;11.90;;;10.57;;
6610;SDS011;44111;46.692;13.664;2022-10-16T17:01:47;12.97;;;11.53;;
6610;SDS011;44111;46.692;13.664;2022-10-16T17:04:14;15.20;;;12.03;;
6610;SDS011;44111;46.692;13.664;2022-10-16T17:06:41;15.70;;;12.87;;
6610;SDS011;44111;46.692;13.664;2022-10-16T17:09:09;12.23;;;10.93;;
6610;SDS011;44111;46.692;13.664;2022-10-16T17:11:38;13.63;;;12.23;;
6610;SDS011;44111;46.692;13.664;2022-10-16T17:14:08;12.73;;;11.37;;
6610;SDS011;44111;46.692;13.664;2022-10-16T17:16:35;18.80;;;12.00;;
6610;SDS011;44111;46.692;13.664;2022-10-16T17:19:03;15.30;;;11.20;;
6610;SDS011;44111;46.692;13.664;2022-10-16T17:21:32;24.50;;;12.00;;
6610;SDS011;44111;46.692;13.664;2022-10-16T17:28:12;16.00;;;12.23;;
6610;SDS011;44111;46.692;13.664;2022-10-16T17:30:40;14.10;;;11.30;;
6610;SDS011;44111;46.692;13.664;2022-10-16T17:33:07;12.50;;;11.20;;
6610;SDS011;44111;46.692;13.664;2022-10-16T17:35:35;14.73;;;13.23;;
6610;SDS011;44111;46.692;13.664;2022-10-16T17:38:03;16.10;;;14.50;;
6610;SDS011;44111;46.692;13.664;2022-10-16T17:40:30;15.00;;;12.83;;
6610;SDS011;44111;46.692;13.664;2022-10-16T17:42:57;15.37;;;13.73;;
6610;SDS011;44111;46.692;13.664;2022-10-16T17:45:25;18.40;;;12.67;;
6610;SDS011;44111;46.692;13.664;2022-10-16T17:47:52;17.90;;;13.53;;
6610;SDS011;44111;46.692;13.664;2022-10-16T17:50:20;15.47;;;13.17;;
6610;SDS011;44111;46.692;13.664;2022-10-16T17:52:47;15.07;;;11.63;;
6610;SDS011;44111;46.692;13.664;2022-10-16T17:55:14;13.13;;;11.73;;
6610;SDS011;44111;46.692;13.664;2022-10-16T17:57:40;12.83;;;11.47;;
6610;SDS011;44111;46.692;13.664;2022-10-16T18:00:08;13.30;;;11.90;;
6610;SDS011;44111;46.692;13.664;2022-10-16T18:02:37;15.90;;;12.73;;
6610;SDS011;44111;46.692;13.664;2022-10-16T18:05:06;15.13;;;13.43;;
6610;SDS011;44111;46.692;13.664;2022-10-16T18:07:33;14.87;;;12.20;;
6610;SDS011;44111;46.692;13.664;2022-10-16T18:10:00;17.53;;;13.67;;
6610;SDS011;44111;46.692;13.664;2022-10-16T18:12:31;15.47;;;12.10;;
6610;SDS011;44111;46.692;13.664;2022-10-16T18:14:58;14.83;;;12.27;;
6610;SDS011;44111;46.692;13.664;2022-10-16T18:17:24;17.47;;;13.60;;
6610;SDS011;44111;46.692;13.664;2022-10-16T18:56:46;17.70;;;15.60;;
6610;SDS011;44111;46.692;13.664;2022-10-16T18:59:13;19.13;;;16.07;;
6610;SDS011;44111;46.692;13.664;2022-10-16T19:01:40;18.10;;;14.67;;
6610;SDS011;44111;46.692;13.664;2022-10-16T19:04:08;15.97;;;14.13;;
6610;SDS011;44111;46.692;13.664;2022-10-16T19:06:37;20.10;;;14.10;;
6610;SDS011;44111;46.692;13.664;2022-10-16T19:09:05;15.50;;;13.90;;
6610;SDS011;44111;46.692;13.664;2022-10-16T19:11:34;17.03;;;14.80;;
6610;SDS011;44111;46.692;13.664;2022-10-16T19:14:01;15.87;;;13.93;;
6610;SDS011;44111;46.692;13.664;2022-10-16T19:16:30;15.63;;;13.03;;
6610;SDS011;44111;46.692;13.664;2022-10-16T19:18:59;23.90;;;15.20;;
6610;SDS011;44111;46.692;13.664;2022-10-16T19:21:27;16.60;;;13.57;;
6610;SDS011;44111;46.692;13.664;2022-10-16T19:23:55;24.03;;;19.20;;
6610;SDS011;44111;46.692;13.664;2022-10-16T19:26:23;24.20;;;20.43;;
6610;SDS011;44111;46.692;13.664;2022-10-16T19:28:51;29.83;;;21.17;;
6610;SDS011;44111;46.692;13.664;2022-10-16T19:31:20;17.93;;;15.20;;
6610;SDS011;44111;46.692;13.664;2022-10-16T19:33:50;20.43;;;14.87;;